Speed, North Carolina
Current Conditions -  °F | °C
As of 6:55 AM on Monday 24 Nov 2014 (Local Time) from KETC Reporting Station
Clear Clear  
Wind Chill: 64°   Ceiling: Unl
Heat Index: 64°   Visibility: 10mi
Dew Point: 61°   Wind: 7mph
Humidity: 88%   Direction: 190°S
Pressure: 29.82"   Gusts: NA
Location:  35.97°N, 77.45°W
Report Text: KETC 241155Z AUTO 19006KT 10SM CLR 18/16 A2982 RMK AO2 70060 T01800160 10351 21089
Loading
Personal Weather Stations






























Interactive Weather Map New forecast layout! Learn more

10-Day Weather Forecast

Advertisements
Track Severe Weather on mobile